Time;durP1;ratioP1;P1;durP2;ratioP2;P2;SDS_P1;SDS_P2;PMS_P1;PMS_P2;Temp;Humidity;BMP_temperature;BMP_pressure;BME280_temperature;BME280_humidity;BME280_pressure;Samples;Min_cycle;Max_cycle;Signal;HPM_P1;HPM_P2
2022/06/01 00:01:18;;;;;;;23.40;21.00;;;11.60;99.90;;;;;;5047497;28;20078;-73
2022/06/01 00:03:44;;;;;;;24.57;21.73;;;11.60;99.90;;;;;;5046436;28;20152;-73
2022/06/01 00:06:11;;;;;;;32.10;22.67;;;11.60;99.90;;;;;;5056803;28;20287;-72
2022/06/01 00:08:38;;;;;;;33.05;24.73;;;11.50;99.90;;;;;;5057879;28;20123;-72
2022/06/01 00:11:04;;;;;;;27.50;21.58;;;11.50;99.90;;;;;;5049782;28;20075;-73
2022/06/01 00:13:30;;;;;;;25.25;22.48;;;11.50;99.90;;;;;;5047646;28;20486;-72
2022/06/01 00:15:56;;;;;;;27.90;22.40;;;11.50;99.90;;;;;;5056101;28;20036;-73
2022/06/01 00:18:23;;;;;;;25.23;22.13;;;11.50;99.90;;;;;;5066208;28;20114;-73
2022/06/01 00:20:50;;;;;;;26.60;22.23;;;11.50;99.90;;;;;;5066233;28;20056;-73
2022/06/01 00:23:17;;;;;;;31.15;20.13;;;11.50;99.90;;;;;;5056907;28;20064;-72
2022/06/01 00:25:45;;;;;;;31.25;21.58;;;11.50;99.90;;;;;;5048355;28;20306;-72
2022/06/01 00:28:11;;;;;;;28.23;21.92;;;11.50;99.90;;;;;;5068082;28;20036;-72
2022/06/01 00:30:37;;;;;;;27.50;22.40;;;11.50;99.90;;;;;;5064061;28;20029;-72
2022/06/01 00:33:03;;;;;;;25.15;21.67;;;11.40;99.90;;;;;;5047883;28;20041;-72
2022/06/01 00:35:29;;;;;;;26.23;22.42;;;11.40;99.90;;;;;;5056623;28;20041;-73
2022/06/01 00:37:55;;;;;;;27.30;21.70;;;11.30;99.90;;;;;;5056024;28;20785;-73
2022/06/01 00:40:23;;;;;;;25.33;21.05;;;11.30;99.90;;;;;;5047338;28;20044;-73
2022/06/01 00:42:50;;;;;;;;;;;11.30;99.90;;;;;;5062058;28;20132;-72
2022/06/01 00:45:20;;;;;;;24.93;22.13;;;11.30;99.90;;;;;;5050059;28;19924;-72
2022/06/01 00:47:46;;;;;;;25.65;22.42;;;11.20;99.90;;;;;;5059807;28;20126;-73
2022/06/01 00:50:36;;;;;;;32.42;22.00;;;11.20;99.90;;;;;;5046688;28;20092;-73
2022/06/01 00:53:04;;;;;;;25.85;21.35;;;11.20;99.90;;;;;;5047895;28;20067;-72
2022/06/01 00:55:39;;;;;;;;;;;11.10;99.90;;;;;;5067713;28;20049;-72
2022/06/01 00:58:12;;;;;;;24.50;19.95;;;11.10;99.90;;;;;;5048190;28;19943;-73
2022/06/01 01:00:39;;;;;;;26.17;22.70;;;11.10;99.90;;;;;;5049799;28;20138;-73
2022/06/01 01:03:10;;;;;;;27.85;21.30;;;11.00;99.90;;;;;;5063658;28;20037;-72
2022/06/01 01:05:39;;;;;;;27.35;23.33;;;11.00;99.90;;;;;;5072256;28;20057;-73
2022/06/01 01:08:05;;;;;;;25.02;22.15;;;11.00;99.90;;;;;;5049933;28;20454;-73
2022/06/01 01:10:31;;;;;;;24.08;21.15;;;11.00;99.90;;;;;;5066132;28;20052;-72
2022/06/01 01:13:01;;;;;;;26.25;23.45;;;11.00;99.90;;;;;;5059697;28;20075;-73
2022/06/01 01:15:32;;;;;;;26.60;22.70;;;10.90;99.90;;;;;;5052514;28;20052;-73
2022/06/01 01:17:59;;;;;;;27.63;23.70;;;11.00;99.90;;;;;;5053808;28;20049;-73
2022/06/01 01:20:25;;;;;;;29.73;23.27;;;10.90;99.90;;;;;;5061785;28;20045;-73
2022/06/01 01:23:18;;;;;;;31.42;25.15;;;10.90;99.90;;;;;;5054996;28;20493;-72
2022/06/01 01:25:43;;;;;;;36.63;27.33;;;10.90;99.90;;;;;;5048148;28;20091;-73
2022/06/01 01:28:10;;;;;;;32.05;26.77;;;10.90;99.90;;;;;;5051292;28;20502;-72
2022/06/01 01:30:38;;;;;;;37.65;27.90;;;10.80;99.90;;;;;;5063885;28;20052;-73
2022/06/01 01:33:07;;;;;;;38.45;31.15;;;10.80;99.90;;;;;;5049553;28;20506;-73
2022/06/01 01:35:33;;;;;;;32.75;28.70;;;10.80;99.90;;;;;;5050356;28;20041;-73
2022/06/01 01:38:03;;;;;;;33.10;25.88;;;10.80;99.90;;;;;;5061319;28;20055;-73
2022/06/01 01:40:28;;;;;;;35.08;28.73;;;10.80;99.90;;;;;;5055770;28;20114;-73
2022/06/01 01:42:57;;;;;;;33.70;30.08;;;10.80;99.90;;;;;;5052788;28;20041;-73
2022/06/01 01:45:33;;;;;;;35.42;28.30;;;10.80;99.90;;;;;;5068956;28;20097;-73
2022/06/01 01:47:59;;;;;;;35.72;30.70;;;10.70;99.90;;;;;;5070257;28;20401;-73
2022/06/01 01:50:25;;;;;;;37.53;30.85;;;10.70;99.90;;;;;;5070003;28;20064;-72
2022/06/01 01:52:52;;;;;;;39.78;33.22;;;10.70;99.90;;;;;;5064358;28;20060;-73
2022/06/01 01:55:37;;;;;;;43.95;31.23;;;10.70;99.90;;;;;;5058091;28;20044;-73
2022/06/01 01:58:08;;;;;;;45.05;33.55;;;10.70;99.90;;;;;;5060166;28;20050;-73
2022/06/01 02:00:39;;;;;;;42.00;33.70;;;10.70;99.90;;;;;;5057707;28;20041;-72
2022/06/01 02:03:24;;;;;;;39.90;33.40;;;10.70;99.90;;;;;;5068455;28;20040;-73
2022/06/01 02:06:17;;;;;;;45.42;34.17;;;10.60;99.90;;;;;;5058557;28;20452;-73
2022/06/01 02:08:54;;;;;;;46.45;37.00;;;10.60;99.90;;;;;;5064864;28;20119;-73
2022/06/01 02:14:24;;;;;;;43.97;37.42;;;10.50;99.90;;;;;;5057844;28;20045;-73
2022/06/01 02:16:56;;;;;;;44.95;34.50;;;10.50;99.90;;;;;;5051481;28;20102;-73
2022/06/01 02:19:26;;;;;;;41.58;34.22;;;10.50;99.90;;;;;;5062980;28;20044;-73
2022/06/01 02:21:54;;;;;;;45.35;34.67;;;10.50;99.90;;;;;;5047705;28;20048;-73
2022/06/01 02:24:22;;;;;;;42.40;34.58;;;10.40;99.90;;;;;;5068619;28;20053;-73
2022/06/01 02:26:49;;;;;;;43.88;33.10;;;10.40;99.90;;;;;;5066188;28;20124;-73
2022/06/01 02:29:21;;;;;;;55.55;34.72;;;10.40;99.90;;;;;;5056073;28;20060;-73
2022/06/01 02:31:47;;;;;;;43.80;32.50;;;10.40;99.90;;;;;;5069746;28;20044;-73
2022/06/01 02:34:14;;;;;;;43.92;35.30;;;10.30;99.90;;;;;;5052391;28;20049;-73
2022/06/01 02:36:43;;;;;;;41.50;32.88;;;10.40;99.90;;;;;;5049869;28;20060;-72
2022/06/01 02:39:12;;;;;;;37.75;32.22;;;10.30;99.90;;;;;;5051238;28;20056;-73
2022/06/01 02:44:23;;;;;;;39.85;33.90;;;10.30;99.90;;;;;;5053484;28;20058;-73
2022/06/01 02:46:49;;;;;;;41.90;32.92;;;10.30;99.90;;;;;;5057813;28;20056;-73
2022/06/01 02:49:17;;;;;;;39.90;32.92;;;10.20;99.90;;;;;;5056876;28;20057;-73
2022/06/01 02:51:44;;;;;;;37.33;32.75;;;10.20;99.90;;;;;;5049194;28;20056;-73
2022/06/01 02:54:10;;;;;;;39.78;34.55;;;10.20;99.90;;;;;;5052146;28;20514;-73
2022/06/01 02:56:35;;;;;;;39.97;34.47;;;10.20;99.90;;;;;;5039137;28;20045;-73
2022/06/01 02:59:01;;;;;;;42.50;34.53;;;10.20;99.90;;;;;;5059407;28;20056;-73
2022/06/01 03:01:27;;;;;;;45.90;36.92;;;10.20;99.90;;;;;;5050471;28;20053;-73
2022/06/01 03:03:53;;;;;;;40.20;34.97;;;10.20;99.90;;;;;;5057969;28;20500;-73
2022/06/01 03:06:19;;;;;;;42.58;34.22;;;10.20;99.90;;;;;;5055908;28;20044;-74
2022/06/01 03:08:45;;;;;;;43.88;35.58;;;10.20;99.90;;;;;;5056794;28;20081;-73
2022/06/01 03:11:13;;;;;;;44.95;38.25;;;10.20;99.90;;;;;;5053326;28;20108;-73
2022/06/01 03:13:39;;;;;;;50.88;39.72;;;10.20;99.90;;;;;;5049333;28;20056;-73
2022/06/01 03:16:05;;;;;;;47.25;37.97;;;10.20;99.90;;;;;;5062016;28;20044;-73
2022/06/01 03:18:32;;;;;;;47.67;37.70;;;10.20;99.90;;;;;;5050976;28;20084;-73
2022/06/01 03:20:59;;;;;;;51.30;42.13;;;10.20;99.90;;;;;;5049362;28;20045;-73
2022/06/01 03:23:26;;;;;;;52.42;39.80;;;10.20;99.90;;;;;;5050302;28;20049;-73
2022/06/01 03:25:52;;;;;;;48.10;41.22;;;10.20;99.90;;;;;;5052687;28;20056;-73
2022/06/01 03:28:17;;;;;;;44.33;38.38;;;10.20;99.90;;;;;;5057452;28;20136;-73
2022/06/01 03:30:43;;;;;;;48.28;39.22;;;10.20;99.90;;;;;;5060192;28;20135;-73
2022/06/01 03:33:15;;;;;;;48.08;40.28;;;10.20;99.90;;;;;;5054333;28;20051;-73
2022/06/01 03:35:41;;;;;;;61.28;43.25;;;10.30;99.90;;;;;;5051868;28;20051;-73
2022/06/01 03:38:07;;;;;;;50.78;40.00;;;10.20;99.90;;;;;;5049699;28;20037;-73
2022/06/01 03:40:37;;;;;;;50.00;42.13;;;10.30;99.90;;;;;;5060162;28;20787;-73
2022/06/01 03:43:04;;;;;;;58.53;42.42;;;10.30;99.90;;;;;;5054412;28;20040;-73
2022/06/01 03:48:16;;;;;;;46.97;39.75;;;10.30;99.90;;;;;;5051059;28;20045;-73
2022/06/01 03:50:44;;;;;;;56.87;42.73;;;10.30;99.90;;;;;;5057453;28;20775;-73
2022/06/01 03:53:11;;;;;;;56.17;44.43;;;10.30;99.90;;;;;;5058597;28;20322;-73
2022/06/01 03:55:36;;;;;;;55.40;43.75;;;10.40;99.90;;;;;;5063356;28;20766;-73
2022/06/01 03:58:02;;;;;;;52.50;44.92;;;10.40;99.90;;;;;;5058373;28;20152;-73
2022/06/01 04:00:29;;;;;;;55.38;44.13;;;10.40;99.90;;;;;;5049165;28;20168;-73
2022/06/01 04:02:55;;;;;;;51.20;41.63;;;10.40;99.90;;;;;;5057491;28;20732;-73
2022/06/01 04:05:23;;;;;;;62.05;45.80;;;10.50;99.90;;;;;;5054454;28;20081;-73
2022/06/01 04:07:49;;;;;;;55.60;44.35;;;10.50;99.90;;;;;;5056969;28;20468;-73
2022/06/01 04:10:15;;;;;;;51.40;41.85;;;10.50;99.90;;;;;;5061024;28;20124;-72
2022/06/01 04:12:41;;;;;;;57.10;44.90;;;10.50;99.90;;;;;;5053783;28;20123;-73
2022/06/01 04:15:11;;;;;;;58.95;47.08;;;10.50;99.90;;;;;;5049666;28;20037;-73
2022/06/01 04:17:38;;;;;;;54.47;46.03;;;10.50;99.90;;;;;;5054858;28;20057;-73
2022/06/01 04:20:06;;;;;;;58.72;44.85;;;10.50;99.90;;;;;;5054192;28;20048;-73
2022/06/01 04:22:32;;;;;;;66.28;45.72;;;10.60;99.90;;;;;;5060906;28;20735;-73
2022/06/01 04:24:58;;;;;;;58.42;46.45;;;10.60;99.90;;;;;;5061880;28;20044;-73
2022/06/01 04:27:23;;;;;;;55.00;46.40;;;10.60;99.90;;;;;;5060188;28;20485;-73
2022/06/01 04:29:49;;;;;;;55.13;43.75;;;10.60;99.90;;;;;;5061832;28;20048;-73
2022/06/01 04:32:20;;;;;;;59.95;47.67;;;10.60;99.90;;;;;;5054626;28;20396;-73
2022/06/01 04:34:46;;;;;;;54.85;45.13;;;10.70;99.90;;;;;;5045374;28;20128;-73
2022/06/01 04:37:11;;;;;;;56.60;44.63;;;10.70;99.90;;;;;;5050178;28;20045;-73
2022/06/01 04:39:37;;;;;;;63.10;47.20;;;10.70;99.90;;;;;;5057214;28;20044;-73
2022/06/01 04:42:03;;;;;;;56.05;45.67;;;10.70;99.90;;;;;;5055208;28;20051;-74
2022/06/01 04:44:29;;;;;;;54.67;43.83;;;10.70;99.90;;;;;;5055894;28;20493;-73
2022/06/01 04:46:54;;;;;;;61.92;46.28;;;10.70;99.90;;;;;;5047593;28;20044;-73
2022/06/01 04:49:20;;;;;;;52.28;41.90;;;10.80;99.90;;;;;;5055245;28;20405;-73
2022/06/01 04:51:47;;;;;;;62.65;48.17;;;10.80;99.90;;;;;;5054959;28;20084;-73
2022/06/01 04:54:12;;;;;;;53.58;43.45;;;10.80;99.90;;;;;;5051227;28;20090;-73
2022/06/01 04:56:38;;;;;;;60.85;46.50;;;10.90;99.90;;;;;;5039388;28;20076;-73
2022/06/01 04:59:04;;;;;;;58.83;47.92;;;10.90;99.90;;;;;;5057657;28;20048;-74
2022/06/01 05:01:29;;;;;;;55.38;45.45;;;10.90;99.90;;;;;;5050521;28;20032;-73
2022/06/01 05:03:56;;;;;;;53.88;44.53;;;10.90;99.90;;;;;;5055844;28;20072;-74
2022/06/01 05:06:22;;;;;;;56.15;44.30;;;10.90;99.90;;;;;;5054132;28;20702;-74
2022/06/01 05:08:48;;;;;;;59.75;47.88;;;10.90;99.90;;;;;;5061427;28;20079;-75
2022/06/01 05:11:14;;;;;;;66.13;48.13;;;10.90;99.90;;;;;;5060635;28;20120;-73
2022/06/01 05:13:39;;;;;;;60.25;47.55;;;10.90;99.90;;;;;;5053722;28;20113;-73
2022/06/01 05:16:06;;;;;;;59.92;48.70;;;10.90;99.90;;;;;;5050483;28;20044;-74
2022/06/01 05:18:32;;;;;;;57.30;45.72;;;11.00;99.90;;;;;;5065914;28;20127;-74
2022/06/01 05:20:58;;;;;;;58.50;46.58;;;11.00;99.90;;;;;;5065623;28;20127;-72
2022/06/01 05:23:25;;;;;;;60.80;47.53;;;11.00;99.90;;;;;;5059487;28;20057;-74
2022/06/01 05:25:53;;;;;;;56.17;40.17;;;11.10;99.90;;;;;;5067203;28;20052;-74
2022/06/01 05:28:21;;;;;;;48.70;41.28;;;11.00;99.90;;;;;;5056414;28;20127;-74
2022/06/01 05:30:47;;;;;;;60.67;45.97;;;11.10;99.90;;;;;;5060337;28;20080;-74
2022/06/01 05:33:13;;;;;;;55.47;39.30;;;11.10;99.90;;;;;;5062218;28;20096;-74
2022/06/01 05:35:40;;;;;;;52.53;42.13;;;11.10;99.90;;;;;;5055956;28;20048;-73
2022/06/01 05:38:06;;;;;;;46.95;41.15;;;11.10;99.90;;;;;;5054886;28;20049;-75
2022/06/01 05:40:31;;;;;;;57.92;42.80;;;11.10;99.90;;;;;;5050622;28;20049;-74
2022/06/01 05:42:58;;;;;;;50.35;40.05;;;11.20;99.90;;;;;;5053699;28;20045;-74
2022/06/01 05:45:24;;;;;;;46.20;39.38;;;11.10;99.90;;;;;;5047483;28;20126;-73
2022/06/01 05:47:50;;;;;;;47.65;39.17;;;11.20;99.90;;;;;;5054664;28;20143;-74
2022/06/01 05:50:16;;;;;;;50.65;41.50;;;11.20;99.90;;;;;;5054458;28;20135;-73
2022/06/01 05:52:41;;;;;;;53.53;38.53;;;11.20;99.90;;;;;;5059530;28;20048;-74
2022/06/01 05:55:09;;;;;;;49.72;40.88;;;11.20;99.90;;;;;;5060045;28;20437;-74
2022/06/01 05:57:35;;;;;;;52.08;40.67;;;11.30;99.90;;;;;;5059803;28;20101;-74
2022/06/01 06:00:04;;;;;;;45.33;36.88;;;11.30;99.90;;;;;;5062190;28;20481;-74
2022/06/01 06:02:30;;;;;;;48.03;38.30;;;11.30;99.90;;;;;;5062366;28;20102;-74
2022/06/01 06:04:56;;;;;;;43.28;35.63;;;11.30;99.90;;;;;;5063980;28;20402;-74
2022/06/01 06:07:22;;;;;;;47.53;37.65;;;11.30;99.90;;;;;;5073282;28;20063;-74
2022/06/01 06:09:47;;;;;;;51.30;39.28;;;11.40;99.90;;;;;;5059681;28;20120;-74
2022/06/01 06:12:13;;;;;;;41.85;35.75;;;11.40;99.90;;;;;;5060975;28;20049;-74
2022/06/01 06:14:39;;;;;;;44.78;36.10;;;11.40;99.90;;;;;;5065052;28;20044;-74
2022/06/01 06:17:06;;;;;;;50.08;34.38;;;11.50;99.90;;;;;;5058913;28;20048;-74
2022/06/01 06:19:31;;;;;;;48.20;34.80;;;11.50;99.90;;;;;;5064943;28;20052;-74
2022/06/01 06:21:57;;;;;;;46.65;37.63;;;11.50;99.90;;;;;;5058822;28;20464;-73
2022/06/01 06:24:23;;;;;;;51.38;38.47;;;11.60;99.90;;;;;;5061803;28;20056;-73
2022/06/01 06:26:49;;;;;;;42.28;35.53;;;11.60;99.90;;;;;;5059404;28;20051;-73
2022/06/01 06:29:17;;;;;;;41.63;35.80;;;11.70;99.90;;;;;;5066804;28;20097;-73
2022/06/01 06:31:44;;;;;;;45.92;35.70;;;11.70;99.90;;;;;;5063723;28;20040;-74
2022/06/01 06:34:09;;;;;;;49.75;37.25;;;11.80;99.90;;;;;;5064465;28;20162;-73
2022/06/01 06:36:35;;;;;;;45.80;35.75;;;11.90;99.90;;;;;;5067884;28;20452;-74
2022/06/01 06:39:01;;;;;;;45.78;37.15;;;11.90;99.90;;;;;;5066385;28;20051;-73
2022/06/01 06:41:27;;;;;;;48.25;38.63;;;12.00;99.90;;;;;;5065234;28;20051;-74
2022/06/01 06:43:53;;;;;;;50.67;41.08;;;12.00;99.90;;;;;;5063262;28;20409;-76
2022/06/01 06:46:20;;;;;;;55.70;37.50;;;12.10;99.90;;;;;;5056085;28;20049;-73
2022/06/01 06:48:50;;;;;;;46.25;36.50;;;12.20;99.90;;;;;;5056949;28;20048;-73
2022/06/01 06:51:17;;;;;;;43.40;34.17;;;12.30;99.90;;;;;;5058818;28;20066;-71
2022/06/01 06:53:44;;;;;;;41.15;33.40;;;12.30;99.90;;;;;;5065407;28;20083;-77
2022/06/01 06:56:11;;;;;;;42.67;35.08;;;12.40;99.90;;;;;;5066706;28;20052;-74
2022/06/01 06:58:37;;;;;;;37.63;32.97;;;12.50;99.90;;;;;;5060525;28;20051;-74
2022/06/01 07:01:04;;;;;;;37.88;33.42;;;12.50;99.90;;;;;;5052067;28;20120;-74
2022/06/01 07:03:29;;;;;;;34.70;30.25;;;12.50;99.90;;;;;;5051992;28;20443;-74
2022/06/01 07:06:13;;;;;;;36.90;27.55;;;12.50;99.90;;;;;;5057934;28;20126;-75
2022/06/01 07:08:42;;;;;;;39.10;33.33;;;12.60;99.90;;;;;;5059067;28;20051;-75
2022/06/01 07:11:10;;;;;;;36.10;30.70;;;12.60;99.90;;;;;;5052791;28;20072;-74
2022/06/01 07:13:36;;;;;;;35.22;30.63;;;12.70;99.90;;;;;;5051229;28;20486;-74
2022/06/01 07:16:11;;;;;;;40.15;32.10;;;12.80;99.90;;;;;;5058306;28;20098;-74
2022/06/01 07:18:38;;;;;;;36.67;29.95;;;12.90;99.90;;;;;;5061268;28;20149;-74
2022/06/01 07:21:05;;;;;;;37.10;32.40;;;13.00;99.90;;;;;;5058234;28;20116;-75
2022/06/01 07:23:31;;;;;;;42.42;30.35;;;13.00;99.90;;;;;;5059903;28;20041;-75
2022/06/01 07:25:57;;;;;;;35.28;29.15;;;13.10;99.90;;;;;;5063854;28;20048;-75
2022/06/01 07:28:23;;;;;;;37.60;31.02;;;13.10;99.90;;;;;;5045173;28;21003;-76
2022/06/01 07:30:59;;;;;;;38.72;33.92;;;13.10;99.90;;;;;;5053327;28;20051;-75
2022/06/01 07:33:29;;;;;;;36.03;32.03;;;13.20;99.90;;;;;;5058676;28;20062;-75
2022/06/01 07:35:55;;;;;;;37.58;32.00;;;13.30;99.90;;;;;;5059599;28;20567;-75
2022/06/01 07:43:54;;;;;;;35.40;30.50;;;13.60;99.90;;;;;;5064187;28;20052;-75
2022/06/01 07:46:20;;;;;;;37.55;32.80;;;13.70;99.90;;;;;;5070023;28;20048;-75
2022/06/01 07:48:46;;;;;;;38.53;31.75;;;13.80;99.90;;;;;;5057908;28;20573;-76
2022/06/01 07:51:13;;;;;;;38.75;33.60;;;13.80;99.90;;;;;;5066689;28;20600;-75
2022/06/01 07:53:39;;;;;;;38.75;32.22;;;13.90;99.90;;;;;;5062964;28;20102;-74
2022/06/01 07:56:04;;;;;;;36.33;30.40;;;13.90;99.90;;;;;;5056246;28;20041;-74
2022/06/01 07:58:30;;;;;;;36.20;30.42;;;14.00;99.90;;;;;;5063859;28;20078;-74
2022/06/01 08:00:56;;;;;;;36.72;30.23;;;14.10;99.90;;;;;;5060451;28;20065;-74
2022/06/01 08:03:23;;;;;;;31.17;27.77;;;14.20;99.90;;;;;;5061314;28;20763;-75
2022/06/01 08:05:50;;;;;;;28.88;25.77;;;14.30;99.90;;;;;;5061195;28;20047;-75
2022/06/01 08:08:16;;;;;;;29.95;26.63;;;14.30;99.90;;;;;;5066828;28;20099;-74
2022/06/01 08:10:42;;;;;;;27.08;23.10;;;14.20;99.90;;;;;;5062917;28;20724;-77
2022/06/01 08:13:13;;;;;;;50.95;33.80;;;14.30;99.90;;;;;;5049801;28;20524;-74
2022/06/01 08:15:49;;;;;;;40.85;30.63;;;14.20;99.90;;;;;;5038900;28;20045;-74
2022/06/01 08:18:17;;;;;;;15.23;11.07;;;14.00;99.90;;;;;;5061872;28;20575;-76
2022/06/01 08:20:43;;;;;;;;;;;13.60;99.90;;;;;;5065223;28;20048;-73
2022/06/01 08:23:10;;;;;;;7.88;5.72;;;13.10;99.90;;;;;;5063293;28;19977;-76
2022/06/01 08:25:37;;;;;;;9.00;5.40;;;12.90;99.90;;;;;;5063711;28;20048;-76
2022/06/01 08:28:04;;;;;;;9.07;5.75;;;12.70;99.90;;;;;;5062747;28;20044;-77
2022/06/01 08:30:31;;;;;;;11.50;4.88;;;12.60;99.90;;;;;;5060626;28;20045;-75
2022/06/01 08:32:58;;;;;;;6.05;3.67;;;12.50;99.90;;;;;;5045105;28;20049;-77
2022/06/01 08:35:29;;;;;;;7.32;4.35;;;12.40;99.90;;;;;;5056023;28;20060;-76
2022/06/01 08:37:56;;;;;;;4.72;4.20;;;12.40;99.90;;;;;;5053175;28;20055;-76
2022/06/01 08:40:29;;;;;;;4.68;4.18;;;12.30;99.90;;;;;;5061588;28;20041;-76
2022/06/01 08:43:02;;;;;;;5.43;4.93;;;12.30;99.90;;;;;;5066720;28;20056;-75
2022/06/01 08:45:28;;;;;;;6.88;5.40;;;12.10;99.90;;;;;;5060638;28;20045;-74
2022/06/01 08:47:55;;;;;;;5.95;4.22;;;12.10;99.90;;;;;;5058160;28;20044;-75
2022/06/01 08:50:25;;;;;;;6.90;4.65;;;12.10;99.90;;;;;;5060560;28;20064;-75
2022/06/01 08:52:53;;;;;;;5.88;4.13;;;12.00;99.90;;;;;;5045467;28;20048;-76
2022/06/01 08:55:18;;;;;;;;;;;11.90;99.90;;;;;;5056001;28;20052;-75
2022/06/01 08:58:01;;;;;;;3.90;3.50;;;11.90;99.90;;;;;;5057503;28;20377;-77
2022/06/01 09:00:32;;;;;;;8.77;3.03;;;11.80;99.90;;;;;;5062166;28;20040;-75
2022/06/01 09:02:57;;;;;;;3.30;3.00;;;11.80;99.90;;;;;;5057519;28;20659;-75
2022/06/01 09:05:32;;;;;;;3.67;3.38;;;11.80;99.90;;;;;;5054983;28;20055;-76
2022/06/01 09:08:32;;;;;;;6.63;2.85;;;11.90;99.90;;;;;;5051599;28;20053;-77
2022/06/01 09:11:05;;;;;;;7.07;3.35;;;12.00;99.90;;;;;;5061388;28;20862;-76
2022/06/01 09:13:51;;;;;;;3.13;2.30;;;11.90;99.90;;;;;;5061244;28;20072;-77
2022/06/01 09:16:37;;;;;;;3.00;2.60;;;12.10;99.90;;;;;;5062103;28;20052;-76
2022/06/01 09:19:07;;;;;;;4.75;2.30;;;12.20;99.90;;;;;;5046844;28;20053;-77
2022/06/01 09:24:28;;;;;;;6.47;2.85;;;12.70;99.90;;;;;;5052822;28;20055;-76
2022/06/01 09:27:01;;;;;;;2.10;2.00;;;13.10;99.90;;;;;;5062769;28;20690;-75
2022/06/01 09:29:32;;;;;;;2.70;2.50;;;13.40;99.90;;;;;;5066380;28;20471;-75
2022/06/01 09:32:05;;;;;;;2.00;1.90;;;13.70;99.90;;;;;;5060305;28;20124;-75
2022/06/01 09:34:37;;;;;;;2.10;1.90;;;13.90;99.90;;;;;;5065207;28;20054;-74
2022/06/01 09:37:13;;;;;;;2.45;2.25;;;14.20;99.90;;;;;;5057104;28;21514;-74
2022/06/01 09:39:50;;;;;;;1.90;1.80;;;14.40;99.90;;;;;;5061425;28;20094;-74
2022/06/01 09:42:25;;;;;;;1.70;1.60;;;14.60;99.90;;;;;;5063425;28;20052;-75
2022/06/01 09:44:51;;;;;;;1.55;1.45;;;14.70;99.90;;;;;;5048849;28;20055;-74
2022/06/01 09:47:40;;;;;;;2.80;2.53;;;15.00;99.90;;;;;;5057354;28;20045;-75
2022/06/01 09:50:34;;;;;;;3.05;2.60;;;15.20;99.90;;;;;;5060704;28;20124;-75
2022/06/01 09:53:01;;;;;;;3.35;2.53;;;15.30;99.90;;;;;;5055913;28;20056;-73
2022/06/01 09:55:28;;;;;;;2.85;2.20;;;15.50;99.90;;;;;;5059436;28;20489;-74
2022/06/01 10:07:04;;;;;;;7.68;4.93;;;16.20;99.90;;;;;;5063046;28;20072;-73
2022/06/01 10:09:32;;;;;;;8.82;4.32;;;16.40;99.90;;;;;;5057255;28;20048;-74
2022/06/01 10:12:14;;;;;;;5.80;4.45;;;16.50;99.90;;;;;;5061723;28;20386;-74
2022/06/01 10:14:48;;;;;;;6.22;5.63;;;16.60;99.90;;;;;;5052735;28;20048;-74
2022/06/01 10:17:14;;;;;;;8.05;7.10;;;16.70;99.90;;;;;;5055178;28;20064;-74
2022/06/01 10:19:45;;;;;;;10.15;8.73;;;16.80;99.90;;;;;;5054122;28;20052;-74
2022/06/01 10:22:25;;;;;;;9.05;8.25;;;16.90;99.90;;;;;;5060136;28;20144;-74
2022/06/01 10:25:11;;;;;;;14.60;5.75;;;16.90;99.90;;;;;;5052708;28;20047;-73
2022/06/01 10:27:59;;;;;;;7.38;6.55;;;16.90;99.90;;;;;;5054381;28;20120;-73
2022/06/01 10:30:32;;;;;;;;;;;16.70;99.90;;;;;;5045446;28;20052;-75
2022/06/01 10:33:15;;;;;;;8.18;7.38;;;16.50;99.90;;;;;;5050926;28;20381;-76
2022/06/01 10:35:59;;;;;;;8.73;7.70;;;16.50;99.90;;;;;;5060579;28;20049;-77
2022/06/01 10:38:30;;;;;;;7.53;6.63;;;16.40;99.90;;;;;;5049060;28;20041;-76
2022/06/01 10:41:12;;;;;;;7.95;7.28;;;16.40;99.90;;;;;;5048711;28;20582;-75
2022/06/01 10:44:02;;;;;;;8.70;7.50;;;16.40;99.90;;;;;;5057714;28;20036;-75
2022/06/01 10:46:47;;;;;;;8.55;7.65;;;16.20;99.90;;;;;;5053458;28;20076;-75
2022/06/01 10:49:43;;;;;;;10.20;5.57;;;16.20;99.90;;;;;;5053377;28;20103;-75
2022/06/01 10:52:29;;;;;;;7.95;7.18;;;16.30;99.90;;;;;;5054200;28;20059;-74
2022/06/01 10:55:08;;;;;;;14.10;11.15;;;16.50;99.90;;;;;;5054207;28;20486;-74
2022/06/01 10:57:37;;;;;;;13.95;10.02;;;16.40;99.90;;;;;;5050472;28;20055;-74
2022/06/01 11:00:06;;;;;;;10.93;8.85;;;16.40;99.90;;;;;;5056043;28;20413;-75
2022/06/01 11:03:10;;;;;;;9.20;7.88;;;16.30;99.90;;;;;;5065243;28;20056;-74
2022/06/01 11:05:47;;;;;;;9.27;8.48;;;16.30;99.90;;;;;;5034920;28;20087;-75
2022/06/01 11:08:38;;;;;;;8.93;8.02;;;16.10;99.90;;;;;;5058213;28;20044;-75
2022/06/01 11:11:15;;;;;;;9.05;7.00;;;16.10;99.90;;;;;;5054504;28;20127;-74
2022/06/01 11:14:09;;;;;;;8.02;7.32;;;16.00;99.90;;;;;;5051715;28;20037;-75
2022/06/01 11:16:59;;;;;;;9.40;8.27;;;16.00;99.90;;;;;;5063044;28;20052;-75
2022/06/01 11:19:47;;;;;;;11.30;7.55;;;16.00;99.90;;;;;;5021679;28;20052;-75
2022/06/01 11:22:33;;;;;;;9.18;8.10;;;16.00;99.90;;;;;;5046961;28;20391;-74
2022/06/01 11:25:13;;;;;;;7.80;7.05;;;16.10;99.90;;;;;;5062506;28;20849;-75
2022/06/01 11:27:57;;;;;;;9.30;8.48;;;16.00;99.90;;;;;;5059301;28;20049;-75
2022/06/01 11:30:27;;;;;;;8.32;7.05;;;15.70;99.90;;;;;;5049468;28;20049;-74
2022/06/01 11:33:01;;;;;;;7.50;6.80;;;15.50;99.90;;;;;;5049369;28;20472;-74
2022/06/01 11:35:41;;;;;;;9.15;6.93;;;15.20;99.90;;;;;;5052671;28;20048;-75
2022/06/01 11:38:28;;;;;;;7.32;6.10;;;14.90;99.90;;;;;;5051232;28;20048;-74
2022/06/01 11:41:01;;;;;;;8.40;6.13;;;14.70;99.90;;;;;;5048258;28;20045;-74
2022/06/01 11:43:44;;;;;;;10.20;6.05;;;14.50;99.90;;;;;;5061369;28;20040;-76
2022/06/01 11:46:15;;;;;;;10.07;6.45;;;14.30;99.90;;;;;;5049249;28;20124;-75
2022/06/01 11:49:04;;;;;;;8.30;6.88;;;14.50;99.90;;;;;;5060239;28;20830;-75
2022/06/01 11:51:36;;;;;;;12.25;7.13;;;14.40;99.90;;;;;;5046273;28;20086;-75
2022/06/01 11:54:05;;;;;;;9.18;7.82;;;14.40;99.90;;;;;;5054544;28;20132;-75
2022/06/01 11:56:43;;;;;;;13.23;8.05;;;14.40;99.90;;;;;;5057340;28;20040;-75
2022/06/01 11:59:32;;;;;;;10.38;7.18;;;14.40;99.90;;;;;;5048729;28;20077;-76
2022/06/01 12:02:16;;;;;;;8.27;6.25;;;14.40;99.90;;;;;;5048243;28;20576;-76
2022/06/01 12:04:53;;;;;;;5.10;4.60;;;14.50;99.90;;;;;;5055826;28;20056;-77
2022/06/01 12:07:30;;;;;;;3.70;3.40;;;14.70;99.90;;;;;;5046971;28;20049;-77
2022/06/01 12:10:20;;;;;;;2.92;2.72;;;14.70;99.90;;;;;;5058345;28;20049;-77
2022/06/01 12:13:22;;;;;;;4.93;3.10;;;14.70;99.90;;;;;;5048456;28;20052;-77
2022/06/01 12:16:19;;;;;;;3.83;2.67;;;14.70;99.90;;;;;;5017858;28;20061;-77
2022/06/01 12:19:19;;;;;;;2.60;2.40;;;14.70;99.90;;;;;;5058773;28;20087;-77
2022/06/01 12:21:44;;;;;;;2.33;2.15;;;14.70;99.90;;;;;;5016058;28;20055;-76
2022/06/01 12:30:11;;;;;;;2.85;2.65;;;14.60;99.90;;;;;;5065710;28;20053;-76
2022/06/01 12:32:59;;;;;;;2.60;2.40;;;14.70;99.90;;;;;;5058395;28;20045;-76
2022/06/01 12:35:32;;;;;;;3.50;2.63;;;14.80;99.90;;;;;;5046082;28;20048;-76
2022/06/01 12:38:06;;;;;;;2.90;2.60;;;14.90;99.90;;;;;;5058079;28;20379;-76
2022/06/01 12:40:34;;;;;;;5.38;3.00;;;15.10;99.90;;;;;;5046804;28;20103;-77
2022/06/01 12:43:03;;;;;;;2.70;2.47;;;15.10;99.90;;;;;;5053798;28;20041;-78
2022/06/01 12:45:38;;;;;;;5.88;3.03;;;15.30;99.90;;;;;;5035866;28;20106;-71
2022/06/01 12:48:14;;;;;;;4.72;2.80;;;15.40;99.90;;;;;;5050784;28;20041;-70
2022/06/01 12:50:53;;;;;;;3.72;3.42;;;15.60;99.90;;;;;;5049859;28;20056;-71
2022/06/01 12:53:27;;;;;;;4.10;3.70;;;15.70;99.90;;;;;;5057819;28;20060;-70
2022/06/01 12:56:26;;;;;;;3.25;2.95;;;15.70;99.90;;;;;;5064576;28;20044;-70
2022/06/01 12:58:54;;;;;;;4.47;4.07;;;15.60;99.90;;;;;;5034380;28;20147;-70
2022/06/01 13:01:23;;;;;;;5.38;4.30;;;15.60;99.90;;;;;;5047419;28;20049;-70
2022/06/01 13:03:54;;;;;;;3.75;3.45;;;15.70;99.90;;;;;;5048370;28;20040;-70
2022/06/01 13:06:23;;;;;;;4.50;4.10;;;15.80;99.90;;;;;;5048914;28;20037;-70
2022/06/01 13:08:58;;;;;;;4.35;3.95;;;15.90;99.90;;;;;;5047592;28;20045;-70
2022/06/01 13:11:27;;;;;;;10.13;4.15;;;16.10;99.90;;;;;;5054145;28;20053;-70
2022/06/01 13:13:52;;;;;;;5.25;3.83;;;16.10;99.90;;;;;;5047455;28;20044;-70
2022/06/01 13:16:31;;;;;;;4.38;3.97;;;16.20;99.90;;;;;;5047177;28;20525;-70
2022/06/01 13:18:57;;;;;;;5.72;4.53;;;16.20;99.90;;;;;;5057164;28;20049;-69
2022/06/01 13:21:32;;;;;;;4.25;3.85;;;16.20;99.90;;;;;;5051400;28;20102;-69
2022/06/01 13:24:07;;;;;;;3.90;3.55;;;16.10;99.90;;;;;;5051221;28;20091;-69
2022/06/01 13:26:41;;;;;;;4.35;3.35;;;16.20;99.90;;;;;;5061076;28;20097;-69